Time;durP1;ratioP1;P1;durP2;ratioP2;P2;SDS_P1;SDS_P2;PMS_P1;PMS_P2;Temp;Humidity;BMP_temperature;BMP_pressure;BME280_temperature;BME280_humidity;BME280_pressure;Samples;Min_cycle;Max_cycle;Signal;HPM_P1;HPM_P2
2022/02/11 00:02:18;;;;;;;8.83;1.83;;;;;;;;;;5012997;28;20053;-77
2022/02/11 00:07:20;;;;;;;5.20;1.50;;;;;;;;;;5013640;28;20014;-78
2022/02/11 00:09:46;;;;;;;10.03;2.50;;;;;;;;;;5011487;28;20018;-78
2022/02/11 00:12:11;;;;;;;9.33;3.10;;;;;;;;;;5011741;28;20033;-78
2022/02/11 00:17:28;;;;;;;5.37;1.70;;;;;;;;;;5050969;28;20767;-78
2022/02/11 00:19:53;;;;;;;10.07;2.37;;;;;;;;;;5049523;28;20032;-78
2022/02/11 00:22:19;;;;;;;8.57;2.10;;;;;;;;;;5033266;28;20033;-75
2022/02/11 00:24:44;;;;;;;5.90;2.43;;;;;;;;;;5050484;28;20033;-77
2022/02/11 00:35:28;;;;;;;15.83;2.30;;;;;;;;;;5034048;28;20071;-75
2022/02/11 00:37:54;;;;;;;6.30;2.30;;;;;;;;;;5047879;28;20020;-75
2022/02/11 01:04:07;;;;;;;11.00;2.10;;;;;;;;;;5027773;28;20099;-75
2022/02/11 01:06:33;;;;;;;13.37;2.70;;;;;;;;;;5027260;28;20037;-75
2022/02/11 01:08:58;;;;;;;5.07;2.40;;;;;;;;;;5027334;28;20449;-75
2022/02/11 01:13:58;;;;;;;6.07;2.37;;;;;;;;;;5029456;28;20057;-75
2022/02/11 01:16:37;;;;;;;10.07;3.10;;;;;;;;;;5028026;28;21061;-76
2022/02/11 01:19:19;;;;;;;8.83;2.37;;;;;;;;;;5027355;28;20018;-75
2022/02/11 01:22:17;;;;;;;11.67;2.47;;;;;;;;;;5027687;28;20108;-75
2022/02/11 01:32:12;;;;;;;9.75;1.92;;;;;;;;;;5024381;28;20057;-75
2022/02/11 01:37:50;;;;;;;16.00;2.40;;;;;;;;;;5007172;28;20072;-75
2022/02/11 01:45:52;;;;;;;9.27;2.33;;;;;;;;;;5005751;28;20124;-75
2022/02/11 01:51:27;;;;;;;6.70;2.87;;;;;;;;;;5007734;28;20107;-75
2022/02/11 01:53:55;;;;;;;6.27;2.27;;;;;;;;;;5007611;28;20062;-75
2022/02/11 01:57:08;;;;;;;12.63;2.77;;;;;;;;;;5007679;28;20040;-75
2022/02/11 02:33:50;;;;;;;6.87;2.20;;;;;;;;;;5013895;28;20123;-75
2022/02/11 02:58:23;;;;;;;11.33;2.33;;;;;;;;;;5027423;28;20024;-75
2022/02/11 04:55:15;;;;;;;8.87;3.53;;;;;;;;;;5008612;28;20151;-76
2022/02/11 05:00:24;;;;;;;9.07;3.77;;;;;;;;;;5002551;28;20029;-75
2022/02/11 05:02:50;;;;;;;10.57;3.93;;;;;;;;;;5002528;28;20037;-76
2022/02/11 05:05:16;;;;;;;7.03;3.23;;;;;;;;;;5002232;28;20021;-75
2022/02/11 05:07:41;;;;;;;8.40;3.10;;;;;;;;;;5002955;28;20029;-75
2022/02/11 05:10:07;;;;;;;6.63;3.53;;;;;;;;;;5002711;28;20030;-75
2022/02/11 05:12:34;;;;;;;7.17;3.13;;;;;;;;;;5002550;28;20026;-76
2022/02/11 05:14:59;;;;;;;8.43;3.17;;;;;;;;;;5002462;28;20030;-75
2022/02/11 05:17:24;;;;;;;7.33;2.80;;;;;;;;;;5002522;28;20490;-76
2022/02/11 05:19:49;;;;;;;8.03;3.40;;;;;;;;;;5002327;28;20030;-76
2022/02/11 05:22:14;;;;;;;10.50;3.73;;;;;;;;;;5002145;28;20539;-75
2022/02/11 05:24:40;;;;;;;4.97;2.53;;;;;;;;;;5001827;28;20681;-76
2022/02/11 05:27:05;;;;;;;10.27;2.77;;;;;;;;;;5002013;28;20022;-76
2022/02/11 05:29:30;;;;;;;17.93;4.30;;;;;;;;;;5002593;28;20032;-76
2022/02/11 05:31:55;;;;;;;9.37;3.43;;;;;;;;;;5002396;28;20025;-76
2022/02/11 05:34:21;;;;;;;6.93;3.30;;;;;;;;;;5002008;28;20028;-76
2022/02/11 05:36:46;;;;;;;8.60;3.63;;;;;;;;;;5002197;28;20052;-76
2022/02/11 05:39:11;;;;;;;7.10;3.47;;;;;;;;;;5002132;28;20494;-76
2022/02/11 05:41:36;;;;;;;16.20;3.73;;;;;;;;;;5001749;28;20512;-75
2022/02/11 05:44:02;;;;;;;10.67;3.13;;;;;;;;;;5001994;28;20022;-75
2022/02/11 05:46:29;;;;;;;10.57;2.57;;;;;;;;;;5001728;28;20708;-75
2022/02/11 05:48:54;;;;;;;12.63;3.90;;;;;;;;;;5002207;28;20018;-76
2022/02/11 05:51:19;;;;;;;7.53;2.90;;;;;;;;;;5001451;28;20686;-76
2022/02/11 05:53:45;;;;;;;12.60;3.77;;;;;;;;;;5001020;28;20522;-77
2022/02/11 05:56:10;;;;;;;10.13;3.20;;;;;;;;;;5034655;22;20433;-69
2022/02/11 05:58:38;;;;;;;8.03;2.90;;;;;;;;;;5018573;28;20251;-70
2022/02/11 06:01:03;;;;;;;7.07;2.87;;;;;;;;;;5017998;28;20491;-70
2022/02/11 06:03:28;;;;;;;9.30;2.50;;;;;;;;;;5017295;28;20041;-70
2022/02/11 06:05:54;;;;;;;5.37;2.00;;;;;;;;;;5017698;28;20037;-70
2022/02/11 06:08:19;;;;;;;11.07;2.33;;;;;;;;;;5018532;28;20156;-69
2022/02/11 06:10:44;;;;;;;7.60;1.93;;;;;;;;;;5017739;28;20395;-70
2022/02/11 06:13:10;;;;;;;6.70;2.67;;;;;;;;;;5017881;28;20160;-70
2022/02/11 06:15:35;;;;;;;7.37;2.47;;;;;;;;;;5017757;28;20033;-69
2022/02/11 06:18:00;;;;;;;5.43;2.13;;;;;;;;;;5018190;28;20029;-69
2022/02/11 06:20:28;;;;;;;7.63;1.80;;;;;;;;;;5017938;28;20036;-70
2022/02/11 06:22:55;;;;;;;6.47;1.80;;;;;;;;;;5017781;28;20390;-70
2022/02/11 06:25:20;;;;;;;10.03;2.17;;;;;;;;;;5017596;28;20429;-70
2022/02/11 06:27:46;;;;;;;7.93;1.93;;;;;;;;;;5017932;28;20045;-69
2022/02/11 06:30:12;;;;;;;9.23;1.80;;;;;;;;;;5017617;28;20075;-70
2022/02/11 06:32:37;;;;;;;5.00;1.90;;;;;;;;;;5018057;28;20327;-70
2022/02/11 06:35:02;;;;;;;7.37;1.60;;;;;;;;;;5017585;28;20029;-70
2022/02/11 06:37:28;;;;;;;3.93;1.50;;;;;;;;;;5017873;28;20261;-70
2022/02/11 06:39:53;;;;;;;3.60;1.53;;;;;;;;;;5017906;28;20083;-70
2022/02/11 06:42:18;;;;;;;7.20;1.70;;;;;;;;;;5017214;28;20084;-70
2022/02/11 06:44:43;;;;;;;4.17;1.20;;;;;;;;;;5017455;28;20219;-70
2022/02/11 06:47:09;;;;;;;7.63;1.40;;;;;;;;;;5017938;28;20037;-70
2022/02/11 06:49:34;;;;;;;9.83;1.87;;;;;;;;;;5017619;28;20025;-70
2022/02/11 06:51:59;;;;;;;2.73;1.23;;;;;;;;;;5018046;28;20107;-70
2022/02/11 06:54:24;;;;;;;8.23;1.47;;;;;;;;;;5021701;28;20031;-70
2022/02/11 06:56:49;;;;;;;7.37;1.43;;;;;;;;;;5018170;28;20065;-69
2022/02/11 06:59:15;;;;;;;2.17;0.83;;;;;;;;;;5017926;28;20175;-70
2022/02/11 07:01:40;;;;;;;5.03;0.97;;;;;;;;;;5017984;28;20182;-70
2022/02/11 07:04:05;;;;;;;3.10;1.40;;;;;;;;;;5017039;28;20116;-70
2022/02/11 07:06:31;;;;;;;2.80;0.97;;;;;;;;;;5019264;28;20026;-69
2022/02/11 07:08:56;;;;;;;6.47;1.20;;;;;;;;;;5021386;28;20183;-70
2022/02/11 07:11:21;;;;;;;2.83;0.93;;;;;;;;;;5021306;28;20249;-70
2022/02/11 07:13:46;;;;;;;6.83;1.00;;;;;;;;;;5020862;28;20103;-70
2022/02/11 07:16:15;;;;;;;2.33;1.17;;;;;;;;;;5020876;28;20037;-70
2022/02/11 07:18:40;;;;;;;7.70;1.80;;;;;;;;;;5020663;28;20071;-69
2022/02/11 07:21:06;;;;;;;8.60;1.40;;;;;;;;;;5020592;28;20162;-69
2022/02/11 07:23:31;;;;;;;3.80;0.87;;;;;;;;;;5021078;28;20025;-69
2022/02/11 07:25:56;;;;;;;4.23;1.10;;;;;;;;;;5020721;28;20168;-70
2022/02/11 07:28:21;;;;;;;4.20;1.20;;;;;;;;;;5020932;28;20164;-70
2022/02/11 07:30:51;;;;;;;3.63;1.40;;;;;;;;;;5020595;28;20040;-70
2022/02/11 07:33:16;;;;;;;10.93;1.23;;;;;;;;;;5020346;28;20466;-70
2022/02/11 07:35:41;;;;;;;6.83;0.97;;;;;;;;;;5020552;28;20022;-70
2022/02/11 07:38:06;;;;;;;7.37;1.33;;;;;;;;;;5020567;28;20688;-69
2022/02/11 07:40:32;;;;;;;6.53;1.33;;;;;;;;;;5020296;28;20113;-69
2022/02/11 07:42:57;;;;;;;4.77;1.17;;;;;;;;;;5020533;28;20056;-69
2022/02/11 07:45:24;;;;;;;5.03;1.30;;;;;;;;;;5020529;28;20425;-69
2022/02/11 07:47:49;;;;;;;5.30;1.20;;;;;;;;;;5020352;28;20021;-69
2022/02/11 07:50:14;;;;;;;3.53;1.03;;;;;;;;;;5020161;28;20056;-69
2022/02/11 07:52:40;;;;;;;6.13;1.17;;;;;;;;;;5019867;28;20128;-69
2022/02/11 07:55:05;;;;;;;4.37;1.20;;;;;;;;;;5019821;28;20041;-69
2022/02/11 07:57:30;;;;;;;3.47;1.07;;;;;;;;;;5020479;28;20034;-69
2022/02/11 07:59:56;;;;;;;2.93;1.10;;;;;;;;;;5019730;28;20045;-69
2022/02/11 08:02:21;;;;;;;1.53;0.77;;;;;;;;;;5020126;28;20429;-69
2022/02/11 08:04:46;;;;;;;4.10;1.20;;;;;;;;;;5018871;28;20068;-69
2022/02/11 08:07:12;;;;;;;4.13;1.17;;;;;;;;;;5019970;28;20094;-69
2022/02/11 08:09:37;;;;;;;4.37;1.03;;;;;;;;;;5020200;28;20029;-69
2022/02/11 08:12:02;;;;;;;4.70;1.40;;;;;;;;;;5020307;28;20354;-69
2022/02/11 08:14:30;;;;;;;2.27;1.20;;;;;;;;;;5019681;28;20060;-69
2022/02/11 08:16:55;;;;;;;6.37;1.87;;;;;;;;;;5019504;28;20049;-68
2022/02/11 08:19:22;;;;;;;4.20;1.10;;;;;;;;;;5020189;28;20661;-68
2022/02/11 08:21:47;;;;;;;3.77;1.17;;;;;;;;;;5019523;28;20278;-68
2022/02/11 08:24:13;;;;;;;6.83;1.20;;;;;;;;;;5020091;28;20290;-68
2022/02/11 08:26:38;;;;;;;5.60;1.73;;;;;;;;;;5019218;28;20032;-68
2022/02/11 08:29:04;;;;;;;7.77;2.17;;;;;;;;;;5019572;28;20447;-68
2022/02/11 08:31:30;;;;;;;6.87;1.30;;;;;;;;;;5019248;28;20109;-68
2022/02/11 08:33:55;;;;;;;5.37;1.40;;;;;;;;;;5019797;28;20113;-68
2022/02/11 08:36:21;;;;;;;4.27;1.20;;;;;;;;;;5019454;28;20064;-69
2022/02/11 08:38:46;;;;;;;7.17;2.00;;;;;;;;;;5019227;28;20502;-69
2022/02/11 08:41:12;;;;;;;5.93;1.60;;;;;;;;;;5019172;28;20043;-70
2022/02/11 08:43:37;;;;;;;12.00;1.50;;;;;;;;;;5018793;28;20231;-69
2022/02/11 08:46:04;;;;;;;6.40;1.33;;;;;;;;;;5018892;28;20053;-69
2022/02/11 08:48:29;;;;;;;12.53;1.87;;;;;;;;;;5019189;28;20501;-69
2022/02/11 08:50:54;;;;;;;5.77;1.63;;;;;;;;;;5018886;28;20037;-69
2022/02/11 08:53:22;;;;;;;3.93;1.33;;;;;;;;;;5018875;28;20365;-69
2022/02/11 08:55:48;;;;;;;7.83;1.73;;;;;;;;;;5023681;28;20045;-69
2022/02/11 08:58:13;;;;;;;4.30;1.40;;;;;;;;;;5019288;28;20113;-69
2022/02/11 09:00:39;;;;;;;6.73;1.60;;;;;;;;;;5018627;28;20101;-69
2022/02/11 09:03:04;;;;;;;9.77;1.20;;;;;;;;;;5018507;28;20063;-69
2022/02/11 09:05:29;;;;;;;6.13;1.40;;;;;;;;;;5018271;28;20504;-69
2022/02/11 09:07:55;;;;;;;4.93;1.20;;;;;;;;;;5019297;28;20037;-70
2022/02/11 09:10:22;;;;;;;4.03;1.07;;;;;;;;;;5018613;28;20501;-69
2022/02/11 09:12:52;;;;;;;9.13;1.03;;;;;;;;;;5018842;28;20049;-69
2022/02/11 09:15:19;;;;;;;5.10;1.00;;;;;;;;;;5018252;28;20268;-69
2022/02/11 09:17:44;;;;;;;9.83;2.03;;;;;;;;;;5018737;28;20266;-69
2022/02/11 09:20:10;;;;;;;8.23;1.63;;;;;;;;;;5018525;28;20124;-69
2022/02/11 09:22:36;;;;;;;6.70;1.30;;;;;;;;;;5018973;28;20632;-69
2022/02/11 09:25:01;;;;;;;3.53;1.40;;;;;;;;;;5018491;28;20021;-69
2022/02/11 09:27:27;;;;;;;4.63;1.63;;;;;;;;;;5018534;28;20308;-69
2022/02/11 09:29:52;;;;;;;4.80;1.43;;;;;;;;;;5017319;28;20065;-69
2022/02/11 09:32:17;;;;;;;5.10;1.67;;;;;;;;;;5018793;28;20112;-70
2022/02/11 09:34:42;;;;;;;9.10;1.73;;;;;;;;;;5018261;28;20037;-70
2022/02/11 09:37:08;;;;;;;10.57;2.27;;;;;;;;;;5018579;28;20455;-69
2022/02/11 09:39:33;;;;;;;4.13;1.07;;;;;;;;;;5017898;28;20501;-69
2022/02/11 09:41:58;;;;;;;6.90;1.17;;;;;;;;;;5018566;28;20394;-70
2022/02/11 09:44:25;;;;;;;4.53;1.63;;;;;;;;;;5018243;28;20057;-69
2022/02/11 09:46:51;;;;;;;7.17;1.40;;;;;;;;;;5018301;28;20237;-69
2022/02/11 09:49:17;;;;;;;7.73;1.77;;;;;;;;;;5018389;28;20124;-69
2022/02/11 09:51:44;;;;;;;5.70;1.83;;;;;;;;;;5017386;28;20025;-69
2022/02/11 09:54:13;;;;;;;4.90;0.70;;;;;;;;;;5018423;28;20022;-69
2022/02/11 09:56:38;;;;;;;1.30;0.60;;;;;;;;;;5017676;28;20291;-69
2022/02/11 09:59:03;;;;;;;5.17;1.70;;;;;;;;;;5018175;28;20087;-69
2022/02/11 10:01:29;;;;;;;3.97;1.00;;;;;;;;;;5017930;28;20041;-69
2022/02/11 10:04:11;;;;;;;4.40;1.20;;;;;;;;;;5017993;28;20081;-69
2022/02/11 10:06:36;;;;;;;;;;;;;;;;;;5018509;28;20025;-69
2022/02/11 10:09:02;;;;;;;6.32;1.17;;;;;;;;;;5017624;28;19932;-69
2022/02/11 10:11:27;;;;;;;4.57;1.63;;;;;;;;;;5015831;28;20033;-69
2022/02/11 10:13:55;;;;;;;6.17;1.67;;;;;;;;;;5018203;28;20179;-69
2022/02/11 10:16:23;;;;;;;3.13;1.30;;;;;;;;;;5017781;28;20071;-69
2022/02/11 10:18:50;;;;;;;3.70;0.80;;;;;;;;;;5017824;28;20045;-69
2022/02/11 10:21:23;;;;;;;9.80;1.77;;;;;;;;;;5017929;28;20383;-69
2022/02/11 10:23:50;;;;;;;3.60;1.07;;;;;;;;;;5018126;28;20044;-69
2022/02/11 10:26:17;;;;;;;6.80;1.60;;;;;;;;;;5017891;28;20060;-70
2022/02/11 10:28:47;;;;;;;3.77;1.10;;;;;;;;;;5018026;28;20117;-71
2022/02/11 10:31:14;;;;;;;2.17;1.00;;;;;;;;;;5017610;28;20064;-70
2022/02/11 10:33:48;;;;;;;5.23;1.03;;;;;;;;;;5004714;28;20028;-70
2022/02/11 10:36:15;;;;;;;4.10;1.40;;;;;;;;;;5017586;28;20018;-70
2022/02/11 10:38:40;;;;;;;8.97;2.33;;;;;;;;;;5018035;28;20298;-70
2022/02/11 10:41:05;;;;;;;3.50;0.93;;;;;;;;;;5018582;28;20260;-70
2022/02/11 10:43:31;;;;;;;6.17;1.10;;;;;;;;;;5021752;28;20036;-70
2022/02/11 10:46:01;;;;;;;5.73;1.30;;;;;;;;;;5021249;28;20053;-70
2022/02/11 10:48:27;;;;;;;4.40;0.80;;;;;;;;;;5021426;28;20315;-70
2022/02/11 10:50:56;;;;;;;1.97;0.83;;;;;;;;;;5021277;28;20278;-70
2022/02/11 10:53:29;;;;;;;3.30;1.00;;;;;;;;;;5021574;28;20030;-70
2022/02/11 10:55:54;;;;;;;6.47;1.40;;;;;;;;;;5020671;28;20437;-70
2022/02/11 10:58:20;;;;;;;3.83;1.07;;;;;;;;;;5021440;28;20018;-70
2022/02/11 11:00:45;;;;;;;3.33;0.97;;;;;;;;;;5021295;28;20013;-70
2022/02/11 11:03:11;;;;;;;2.87;1.00;;;;;;;;;;5021369;28;20022;-70
2022/02/11 11:05:40;;;;;;;3.37;0.83;;;;;;;;;;5020871;28;20433;-70
2022/02/11 11:08:07;;;;;;;3.40;1.10;;;;;;;;;;5021234;28;20044;-70
2022/02/11 11:10:33;;;;;;;3.60;1.20;;;;;;;;;;5021139;28;20025;-70
2022/02/11 11:13:00;;;;;;;3.30;0.60;;;;;;;;;;5021157;28;20106;-71
2022/02/11 11:15:26;;;;;;;3.03;1.00;;;;;;;;;;5020848;28;20593;-70
2022/02/11 11:17:52;;;;;;;3.17;0.90;;;;;;;;;;5021390;28;20029;-71
2022/02/11 11:20:22;;;;;;;3.67;0.70;;;;;;;;;;5020635;28;20036;-70
2022/02/11 11:22:51;;;;;;;2.27;0.83;;;;;;;;;;5021005;28;20110;-71
2022/02/11 11:25:16;;;;;;;3.87;1.40;;;;;;;;;;5020889;28;20025;-70
2022/02/11 11:27:43;;;;;;;6.90;1.20;;;;;;;;;;5021180;28;20382;-70
2022/02/11 11:30:20;;;;;;;3.67;1.13;;;;;;;;;;5020668;28;20519;-70
2022/02/11 11:33:04;;;;;;;4.30;1.00;;;;;;;;;;5020820;28;20029;-70
2022/02/11 11:35:33;;;;;;;4.93;0.97;;;;;;;;;;5020648;28;20056;-70
2022/02/11 11:38:11;;;;;;;2.43;0.80;;;;;;;;;;5021130;28;20025;-70
2022/02/11 11:40:37;;;;;;;4.40;0.97;;;;;;;;;;5020829;28;20032;-70
2022/02/11 11:43:15;;;;;;;2.93;0.70;;;;;;;;;;5021115;28;20151;-70
2022/02/11 11:45:43;;;;;;;5.00;0.90;;;;;;;;;;5021130;28;20029;-70
2022/02/11 11:48:12;;;;;;;4.83;0.80;;;;;;;;;;5021061;28;20112;-70
2022/02/11 11:50:39;;;;;;;3.00;1.03;;;;;;;;;;5020634;28;20234;-70
2022/02/11 11:53:21;;;;;;;2.20;0.70;;;;;;;;;;5020031;28;20062;-70
2022/02/11 11:55:46;;;;;;;2.42;0.90;;;;;;;;;;5025399;28;20418;-70
2022/02/11 11:58:27;;;;;;;6.67;1.27;;;;;;;;;;5021100;28;20037;-70
2022/02/11 12:01:00;;;;;;;5.10;1.20;;;;;;;;;;5020154;28;20257;-69
2022/02/11 12:03:25;;;;;;;3.77;1.10;;;;;;;;;;5020278;28;20028;-69
2022/02/11 12:05:53;;;;;;;9.17;1.07;;;;;;;;;;5020389;28;20029;-70
2022/02/11 12:08:20;;;;;;;4.67;1.30;;;;;;;;;;5020625;28;20232;-70
2022/02/11 12:10:46;;;;;;;7.13;1.30;;;;;;;;;;5020154;28;20022;-70
2022/02/11 12:13:12;;;;;;;4.53;1.20;;;;;;;;;;5020434;28;20386;-70
2022/02/11 12:15:37;;;;;;;4.20;1.30;;;;;;;;;;5013920;28;20036;-70
2022/02/11 12:18:02;;;;;;;4.93;1.27;;;;;;;;;;5019012;28;20113;-70
2022/02/11 12:20:28;;;;;;;6.17;1.90;;;;;;;;;;5019929;28;20029;-70
2022/02/11 12:27:20;;;;;;;4.30;1.37;;;;;;;;;;5020091;28;20021;-70
2022/02/11 12:28:25;;;;;;;3.90;1.10;;;;;;;;;;5020362;28;20048;-70
2022/02/11 12:30:50;;;;;;;6.20;1.30;;;;;;;;;;5020029;28;20030;-70
2022/02/11 12:33:15;;;;;;;8.57;1.70;;;;;;;;;;5019804;28;20116;-70
2022/02/11 12:35:45;;;;;;;8.00;1.47;;;;;;;;;;5019770;28;20447;-70
2022/02/11 12:38:10;;;;;;;9.97;2.23;;;;;;;;;;5019787;28;20289;-70
2022/02/11 12:40:37;;;;;;;6.03;1.70;;;;;;;;;;5019104;28;20440;-70
2022/02/11 12:43:04;;;;;;;9.73;1.93;;;;;;;;;;5019917;28;20123;-70
2022/02/11 12:45:32;;;;;;;7.90;1.20;;;;;;;;;;5019783;28;20029;-70
2022/02/11 12:47:58;;;;;;;7.93;1.80;;;;;;;;;;5019710;28;20033;-70
2022/02/11 12:50:30;;;;;;;6.63;1.57;;;;;;;;;;5018922;28;20580;-70
2022/02/11 12:52:55;;;;;;;;;;;;;;;;;;5019990;28;20542;-70
2022/02/11 12:55:22;;;;;;;5.55;1.27;;;;;;;;;;5023999;28;20468;-71
2022/02/11 12:57:54;;;;;;;5.90;1.93;;;;;;;;;;5019758;28;20029;-70
2022/02/11 13:00:22;;;;;;;7.17;1.30;;;;;;;;;;5019247;28;20109;-71
2022/02/11 13:02:50;;;;;;;6.47;1.30;;;;;;;;;;5019420;28;20392;-70
2022/02/11 13:05:24;;;;;;;4.63;1.83;;;;;;;;;;5018407;28;20040;-70
2022/02/11 13:07:50;;;;;;;5.10;1.43;;;;;;;;;;5019556;28;20126;-70
2022/02/11 13:10:20;;;;;;;5.83;1.27;;;;;;;;;;5019098;28;20205;-71
2022/02/11 13:12:46;;;;;;;6.37;1.37;;;;;;;;;;5019098;28;20253;-70
2022/02/11 13:15:12;;;;;;;11.73;1.73;;;;;;;;;;5018890;28;20128;-70
2022/02/11 13:17:38;;;;;;;7.40;2.03;;;;;;;;;;5019284;28;20025;-70
2022/02/11 13:20:06;;;;;;;6.43;1.07;;;;;;;;;;5018233;28;20029;-70
2022/02/11 13:22:31;;;;;;;4.70;1.20;;;;;;;;;;5019270;28;20467;-70
2022/02/11 13:24:57;;;;;;;5.60;1.63;;;;;;;;;;5018775;28;20260;-70
2022/02/11 13:27:36;;;;;;;5.23;1.27;;;;;;;;;;5019077;28;20664;-70
2022/02/11 13:30:02;;;;;;;10.13;2.50;;;;;;;;;;5018619;28;20386;-71
2022/02/11 13:32:28;;;;;;;8.70;1.47;;;;;;;;;;5018851;28;20092;-71
2022/02/11 13:35:00;;;;;;;8.63;1.37;;;;;;;;;;5018874;28;20071;-71
2022/02/11 13:37:35;;;;;;;5.77;1.80;;;;;;;;;;5019062;28;20048;-71
2022/02/11 13:40:08;;;;;;;10.73;2.10;;;;;;;;;;5018307;28;20077;-71
2022/02/11 13:42:34;;;;;;;7.90;1.73;;;;;;;;;;5018951;28;20349;-71
2022/02/11 13:44:59;;;;;;;6.10;1.27;;;;;;;;;;5018605;28;20809;-71
2022/02/11 13:47:25;;;;;;;11.60;2.40;;;;;;;;;;5018147;28;20075;-71
2022/02/11 13:49:59;;;;;;;4.47;1.10;;;;;;;;;;5018107;28;20490;-71
2022/02/11 13:55:11;;;;;;;5.27;1.57;;;;;;;;;;5019400;28;20060;-71
2022/02/11 13:57:36;;;;;;;7.50;1.20;;;;;;;;;;5018557;28;20021;-71
2022/02/11 14:00:20;;;;;;;4.70;1.23;;;;;;;;;;5018619;28;20327;-71
2022/02/11 14:02:45;;;;;;;7.43;1.10;;;;;;;;;;5006337;28;20270;-70
2022/02/11 14:05:10;;;;;;;4.70;1.33;;;;;;;;;;5018186;28;20055;-71
2022/02/11 14:07:36;;;;;;;11.47;2.43;;;;;;;;;;5017743;28;20066;-70
2022/02/11 14:10:16;;;;;;;8.67;1.40;;;;;;;;;;5017743;28;20044;-70
2022/02/11 14:12:42;;;;;;;6.67;1.67;;;;;;;;;;5018328;28;20029;-71
2022/02/11 14:15:07;;;;;;;6.87;1.50;;;;;;;;;;5020251;28;20043;-70
2022/02/11 14:17:34;;;;;;;6.93;1.37;;;;;;;;;;5025098;28;20060;-70
2022/02/11 14:20:00;;;;;;;10.70;1.73;;;;;;;;;;5024607;28;20030;-71
2022/02/11 14:22:25;;;;;;;4.17;1.10;;;;;;;;;;5025270;28;20025;-71
2022/02/11 14:24:50;;;;;;;5.77;1.73;;;;;;;;;;5024528;28;20029;-71
2022/02/11 14:27:16;;;;;;;5.67;1.00;;;;;;;;;;5025036;28;20289;-71
2022/02/11 14:29:41;;;;;;;6.73;2.37;;;;;;;;;;5024616;28;20493;-71
2022/02/11 14:32:07;;;;;;;4.80;1.10;;;;;;;;;;5024847;28;20104;-71
2022/02/11 14:34:32;;;;;;;9.20;1.20;;;;;;;;;;5024533;28;20025;-71
2022/02/11 14:36:58;;;;;;;6.00;1.73;;;;;;;;;;5024879;28;20033;-71
2022/02/11 14:39:23;;;;;;;4.90;1.87;;;;;;;;;;5024759;28;20033;-71
2022/02/11 14:41:50;;;;;;;7.67;2.33;;;;;;;;;;5023934;28;20555;-71
2022/02/11 14:44:19;;;;;;;7.07;1.53;;;;;;;;;;5024793;28;20585;-70
2022/02/11 14:46:45;;;;;;;6.83;1.30;;;;;;;;;;5024054;28;20029;-70
2022/02/11 14:49:11;;;;;;;7.57;1.70;;;;;;;;;;5024766;28;20362;-70
2022/02/11 14:51:37;;;;;;;3.03;0.90;;;;;;;;;;5024310;28;20433;-71
2022/02/11 14:54:05;;;;;;;3.67;1.23;;;;;;;;;;5025243;28;20021;-71
2022/02/11 14:56:30;;;;;;;10.97;2.00;;;;;;;;;;5024306;28;20049;-71
2022/02/11 14:58:57;;;;;;;6.53;1.40;;;;;;;;;;5024739;28;20549;-71
2022/02/11 15:01:23;;;;;;;4.33;1.03;;;;;;;;;;5024536;28;20645;-71
2022/02/11 15:03:48;;;;;;;6.57;1.10;;;;;;;;;;5024154;28;20029;-71
2022/02/11 15:06:13;;;;;;;12.23;1.30;;;;;;;;;;5024499;28;20071;-71
2022/02/11 15:08:39;;;;;;;6.33;1.10;;;;;;;;;;5024697;28;20033;-71
2022/02/11 15:11:05;;;;;;;5.33;1.10;;;;;;;;;;5024232;28;20569;-72
2022/02/11 15:13:30;;;;;;;5.10;1.23;;;;;;;;;;5024360;28;20026;-71
2022/02/11 15:15:55;;;;;;;8.77;1.93;;;;;;;;;;5024265;28;20101;-71
2022/02/11 15:18:21;;;;;;;4.83;1.10;;;;;;;;;;5024755;28;20170;-71
2022/02/11 15:20:47;;;;;;;7.13;1.13;;;;;;;;;;5025000;28;20045;-72
2022/02/11 15:23:12;;;;;;;8.43;1.43;;;;;;;;;;5025022;28;20127;-71
2022/02/11 15:25:38;;;;;;;7.17;1.20;;;;;;;;;;5023963;28;20033;-71
2022/02/11 15:28:03;;;;;;;8.70;1.43;;;;;;;;;;5020855;28;20025;-71
2022/02/11 15:30:29;;;;;;;9.33;1.47;;;;;;;;;;5021372;28;20099;-70
2022/02/11 15:32:55;;;;;;;7.90;1.20;;;;;;;;;;5021600;28;20029;-70
2022/02/11 15:35:20;;;;;;;7.17;1.13;;;;;;;;;;5021379;28;20072;-71
2022/02/11 15:37:45;;;;;;;6.60;1.07;;;;;;;;;;5021419;28;20017;-71
2022/02/11 15:40:11;;;;;;;7.23;1.93;;;;;;;;;;5021050;28;20479;-71
2022/02/11 15:42:36;;;;;;;7.30;1.57;;;;;;;;;;5020662;28;20018;-70
2022/02/11 15:45:03;;;;;;;4.17;1.23;;;;;;;;;;5020977;28;20332;-71
2022/02/11 15:47:28;;;;;;;6.37;1.10;;;;;;;;;;5021039;28;20025;-71
2022/02/11 15:49:54;;;;;;;3.50;1.10;;;;;;;;;;5020922;28;20044;-71
2022/02/11 15:52:19;;;;;;;8.03;1.40;;;;;;;;;;5021072;28;20413;-71
2022/02/11 15:54:44;;;;;;;3.37;1.03;;;;;;;;;;5025351;28;20425;-71
2022/02/11 15:57:10;;;;;;;2.87;1.20;;;;;;;;;;5020935;28;20363;-71
2022/02/11 15:59:36;;;;;;;6.73;1.20;;;;;;;;;;5020650;28;20022;-71
2022/02/11 16:02:01;;;;;;;10.97;1.47;;;;;;;;;;5017617;28;20022;-71
2022/02/11 16:04:29;;;;;;;4.37;1.10;;;;;;;;;;5020666;28;20365;-71
2022/02/11 16:06:54;;;;;;;4.83;1.50;;;;;;;;;;5019421;28;20112;-71
2022/02/11 16:09:19;;;;;;;8.27;2.67;;;;;;;;;;5020413;28;20478;-71
2022/02/11 16:11:45;;;;;;;10.37;1.27;;;;;;;;;;5020320;28;20034;-71
2022/02/11 16:14:15;;;;;;;5.43;1.20;;;;;;;;;;5020926;28;20216;-71
2022/02/11 16:16:41;;;;;;;7.83;1.47;;;;;;;;;;5020035;28;20676;-71
2022/02/11 16:19:06;;;;;;;6.90;1.00;;;;;;;;;;5020440;28;20053;-71
2022/02/11 16:21:31;;;;;;;3.70;1.37;;;;;;;;;;5020089;28;20013;-71
2022/02/11 16:23:56;;;;;;;7.20;1.57;;;;;;;;;;5020745;28;20075;-71
2022/02/11 16:26:22;;;;;;;10.50;1.50;;;;;;;;;;5020272;28;20274;-71
2022/02/11 16:28:47;;;;;;;3.23;0.90;;;;;;;;;;5020375;28;20033;-71
2022/02/11 16:31:17;;;;;;;8.27;1.47;;;;;;;;;;5020279;28;20060;-71
2022/02/11 16:33:42;;;;;;;11.40;1.33;;;;;;;;;;5020210;28;20040;-70
2022/02/11 16:36:07;;;;;;;11.07;1.20;;;;;;;;;;5019362;28;20213;-70
2022/02/11 16:38:33;;;;;;;10.73;1.03;;;;;;;;;;5018670;28;20060;-70
2022/02/11 16:40:58;;;;;;;10.30;1.40;;;;;;;;;;5019813;28;20025;-70
2022/02/11 16:43:23;;;;;;;12.30;2.73;;;;;;;;;;5019670;28;20025;-71
2022/02/11 16:45:49;;;;;;;3.37;1.00;;;;;;;;;;5019665;28;20269;-70
2022/02/11 16:48:14;;;;;;;14.47;2.83;;;;;;;;;;5020112;28;20264;-70
2022/02/11 16:50:39;;;;;;;11.90;2.00;;;;;;;;;;5019556;28;20083;-70
2022/02/11 16:53:04;;;;;;;5.20;1.93;;;;;;;;;;5019919;28;20029;-71
2022/02/11 16:55:31;;;;;;;7.83;2.40;;;;;;;;;;5019003;28;20045;-70
2022/02/11 16:57:56;;;;;;;7.20;1.90;;;;;;;;;;5019868;28;20097;-70
2022/02/11 17:00:21;;;;;;;3.20;1.13;;;;;;;;;;5019431;28;20100;-70
2022/02/11 17:02:47;;;;;;;10.87;1.80;;;;;;;;;;5019365;28;20111;-70
2022/02/11 17:05:12;;;;;;;8.07;1.43;;;;;;;;;;5019403;28;20030;-70
2022/02/11 17:07:39;;;;;;;8.67;1.77;;;;;;;;;;5019576;28;20026;-70
2022/02/11 17:10:04;;;;;;;8.93;1.80;;;;;;;;;;5019265;28;20517;-70
2022/02/11 17:12:31;;;;;;;8.00;1.67;;;;;;;;;;5019402;28;20091;-70
2022/02/11 17:14:56;;;;;;;3.70;1.20;;;;;;;;;;5018985;28;20029;-70
2022/02/11 17:17:22;;;;;;;6.80;1.10;;;;;;;;;;5019244;28;20036;-71
2022/02/11 17:19:47;;;;;;;7.60;1.53;;;;;;;;;;5019091;28;20030;-70
2022/02/11 17:22:12;;;;;;;7.73;1.83;;;;;;;;;;5018943;28;20022;-70
2022/02/11 17:24:38;;;;;;;6.83;1.33;;;;;;;;;;5019053;28;20026;-70
2022/02/11 17:27:03;;;;;;;5.83;1.47;;;;;;;;;;5019092;28;20029;-70
2022/02/11 17:29:28;;;;;;;5.50;1.63;;;;;;;;;;5018884;28;20040;-70
2022/02/11 17:31:54;;;;;;;8.50;1.77;;;;;;;;;;5018697;28;20425;-71
2022/02/11 17:34:19;;;;;;;8.13;2.10;;;;;;;;;;5018764;28;20048;-70
2022/02/11 17:36:44;;;;;;;8.40;1.53;;;;;;;;;;5019136;28;20075;-70
2022/02/11 17:39:10;;;;;;;9.50;1.73;;;;;;;;;;5018898;28;20107;-72
2022/02/11 17:41:35;;;;;;;9.03;1.87;;;;;;;;;;5019193;28;20025;-70
2022/02/11 17:44:01;;;;;;;11.10;1.53;;;;;;;;;;5019355;28;20029;-71
2022/02/11 17:46:30;;;;;;;5.73;2.63;;;;;;;;;;5019344;28;20017;-70
2022/02/11 17:48:55;;;;;;;13.67;2.17;;;;;;;;;;5020568;28;20182;-71
2022/02/11 17:51:20;;;;;;;8.07;2.10;;;;;;;;;;5018172;28;20524;-70
2022/02/11 17:53:46;;;;;;;8.03;2.57;;;;;;;;;;5020090;28;20057;-70
2022/02/11 17:56:11;;;;;;;16.77;2.30;;;;;;;;;;5023240;28;20111;-70
2022/02/11 17:58:36;;;;;;;5.33;1.80;;;;;;;;;;5020430;28;20057;-70
2022/02/11 18:01:02;;;;;;;9.47;2.00;;;;;;;;;;5019152;28;20022;-72
2022/02/11 18:03:27;;;;;;;10.57;1.93;;;;;;;;;;5020419;28;20576;-71
2022/02/11 18:05:53;;;;;;;12.43;2.63;;;;;;;;;;5026405;28;20390;-72
2022/02/11 18:08:18;;;;;;;9.30;1.57;;;;;;;;;;5025431;28;20035;-71
2022/02/11 18:10:43;;;;;;;9.17;2.50;;;;;;;;;;5020021;28;20044;-70
2022/02/11 18:13:11;;;;;;;6.30;2.00;;;;;;;;;;5019165;28;20613;-70
2022/02/11 18:15:36;;;;;;;8.77;1.70;;;;;;;;;;5018746;28;20025;-70
2022/02/11 18:18:01;;;;;;;5.37;1.50;;;;;;;;;;5020017;28;20029;-71
2022/02/11 18:20:27;;;;;;;12.17;2.50;;;;;;;;;;5019643;28;20103;-71
2022/02/11 18:22:52;;;;;;;9.73;2.20;;;;;;;;;;5019126;28;20022;-71
2022/02/11 18:25:18;;;;;;;11.20;3.13;;;;;;;;;;5018827;28;20034;-71
2022/02/11 18:27:43;;;;;;;14.10;2.60;;;;;;;;;;5019052;28;20043;-71
2022/02/11 18:30:09;;;;;;;7.87;2.03;;;;;;;;;;5019279;28;20041;-71
2022/02/11 18:32:36;;;;;;;10.20;2.10;;;;;;;;;;5019756;28;20664;-71
2022/02/11 18:35:02;;;;;;;13.67;2.93;;;;;;;;;;5019101;28;20217;-71
2022/02/11 18:37:27;;;;;;;11.63;2.30;;;;;;;;;;5018919;28;20044;-71